Horn Island Airport
YHID : now visible

Airfield :











YOU CAN JOIN US ON...

 
LOGIN :

Register | Disclaimer

   EN    FR    IT 

 









Legend :    VFR   Marginal VFR   IFR   Intensive IFR   Very Intensive IFR
Visi :
Ceiling :
>= 8 km
>= 3000ft
5 to 8 km
1000 to 3000 ft
1500m to 5 km
500 to 1000 ft
800 to 1500m
200 to 500 ft
< 800m
< 200 ft
Symbols :   Thunderstorms  Fog  Heavy snow  Heavy precipitations  Wind > 20 kt






- Airport Elevation : 43 ft
- IATA code : HID


YHID - Horn Island

CURRENT METAR :
  • 251930Z AUTO 14007KT 9999 // OVC091 27/23 Q1010 RF00.0/000.0

EXPIRED METARs :
  • 251900Z AUTO 13007KT 9999 // SCT072 OVC091 27/23 Q1010
  • 251830Z AUTO 13006KT 9999 // SCT070 OVC091 27/23 Q1009
  • 251800Z AUTO 14006KT 9999 // SCT018 SCT023 BKN070 27/23 Q1009
  • 251730Z AUTO 13009KT 9999 // SCT020 BKN031 BKN070 27/23 Q1009
  • 251700Z AUTO 12009KT 9999 // SCT020 SCT028 BKN069 27/23 Q1010

TAF TAF YHID
Valid from the 25 at 18:00 until the 26 at 18:00 UTC


251710Z 2518/2618 12008KT 9999 SCT018
FM252200 10014KT 9999 SCT020
FM261000 12008KT 9999 SCT020
YBBB FIR / Oceania



MET'MAP, your aeronautical weather chart ! - Copyright ORBIFLY December 2007 - Disclaimer

ORBIFLY MET'MAP TEAM :

Programming & Development : Alexandra Zaïnal
Original concept : Baudouin d'Aumeries
Technical & hardware support : Manuel Goepfert
Assistance : Marc-Olivier Méhu

Contact : metmap@orbifly.com




SOURCES & CREDITS :

   NOAA       Earth
Advisory